sensor_id;sensor_type;location;lat;lon;timestamp;P1;durP1;ratioP1;P2;durP2;ratioP2
11614;SDS011;5863;52.832;4.758;2022-12-29T00:00:05;6.50;;;2.72;;
11614;SDS011;5863;52.832;4.758;2022-12-29T00:02:34;6.80;;;2.35;;
11614;SDS011;5863;52.832;4.758;2022-12-29T00:05:02;8.98;;;3.15;;
11614;SDS011;5863;52.832;4.758;2022-12-29T00:07:29;7.28;;;2.78;;
11614;SDS011;5863;52.832;4.758;2022-12-29T00:09:55;6.53;;;2.90;;
11614;SDS011;5863;52.832;4.758;2022-12-29T00:12:23;13.38;;;3.20;;
11614;SDS011;5863;52.832;4.758;2022-12-29T00:15:10;13.00;;;3.33;;
11614;SDS011;5863;52.832;4.758;2022-12-29T00:17:54;15.27;;;3.78;;
11614;SDS011;5863;52.832;4.758;2022-12-29T00:20:22;12.98;;;3.40;;
11614;SDS011;5863;52.832;4.758;2022-12-29T00:23:08;8.02;;;2.80;;
11614;SDS011;5863;52.832;4.758;2022-12-29T00:25:53;6.07;;;2.60;;
11614;SDS011;5863;52.832;4.758;2022-12-29T00:28:37;10.00;;;2.80;;
11614;SDS011;5863;52.832;4.758;2022-12-29T00:31:21;7.20;;;2.55;;
11614;SDS011;5863;52.832;4.758;2022-12-29T00:34:07;12.13;;;3.25;;
11614;SDS011;5863;52.832;4.758;2022-12-29T00:36:54;8.25;;;2.50;;
11614;SDS011;5863;52.832;4.758;2022-12-29T00:39:21;9.15;;;3.03;;
11614;SDS011;5863;52.832;4.758;2022-12-29T00:42:06;5.18;;;2.20;;
11614;SDS011;5863;52.832;4.758;2022-12-29T00:44:51;9.43;;;2.65;;
11614;SDS011;5863;52.832;4.758;2022-12-29T00:47:18;8.77;;;2.42;;
11614;SDS011;5863;52.832;4.758;2022-12-29T00:49:44;9.45;;;3.00;;
11614;SDS011;5863;52.832;4.758;2022-12-29T00:52:13;10.00;;;2.53;;
11614;SDS011;5863;52.832;4.758;2022-12-29T00:54:40;9.18;;;2.42;;
11614;SDS011;5863;52.832;4.758;2022-12-29T00:57:09;12.93;;;2.67;;
11614;SDS011;5863;52.832;4.758;2022-12-29T00:59:37;9.80;;;2.58;;
11614;SDS011;5863;52.832;4.758;2022-12-29T01:02:05;15.20;;;2.80;;
11614;SDS011;5863;52.832;4.758;2022-12-29T01:04:32;11.32;;;3.20;;
11614;SDS011;5863;52.832;4.758;2022-12-29T01:06:59;14.25;;;3.05;;
11614;SDS011;5863;52.832;4.758;2022-12-29T01:09:27;7.93;;;2.60;;
11614;SDS011;5863;52.832;4.758;2022-12-29T01:12:11;8.68;;;2.80;;
11614;SDS011;5863;52.832;4.758;2022-12-29T01:14:38;10.50;;;2.85;;
11614;SDS011;5863;52.832;4.758;2022-12-29T01:17:05;8.68;;;2.72;;
11614;SDS011;5863;52.832;4.758;2022-12-29T01:19:32;7.82;;;3.10;;
11614;SDS011;5863;52.832;4.758;2022-12-29T01:21:58;8.13;;;3.33;;
11614;SDS011;5863;52.832;4.758;2022-12-29T01:24:27;9.77;;;3.00;;
11614;SDS011;5863;52.832;4.758;2022-12-29T01:26:53;8.88;;;2.85;;
11614;SDS011;5863;52.832;4.758;2022-12-29T01:29:20;13.73;;;2.40;;
11614;SDS011;5863;52.832;4.758;2022-12-29T01:31:48;9.38;;;2.30;;
11614;SDS011;5863;52.832;4.758;2022-12-29T01:34:15;11.38;;;2.42;;
11614;SDS011;5863;52.832;4.758;2022-12-29T01:36:42;11.82;;;2.33;;
11614;SDS011;5863;52.832;4.758;2022-12-29T01:39:09;14.50;;;2.95;;
11614;SDS011;5863;52.832;4.758;2022-12-29T01:41:37;11.07;;;2.88;;
11614;SDS011;5863;52.832;4.758;2022-12-29T01:47:00;10.68;;;2.13;;
11614;SDS011;5863;52.832;4.758;2022-12-29T01:49:27;8.48;;;1.85;;
11614;SDS011;5863;52.832;4.758;2022-12-29T01:51:55;8.85;;;1.77;;
11614;SDS011;5863;52.832;4.758;2022-12-29T01:54:24;12.50;;;2.63;;
11614;SDS011;5863;52.832;4.758;2022-12-29T01:56:59;8.88;;;1.73;;
11614;SDS011;5863;52.832;4.758;2022-12-29T01:59:30;6.72;;;1.92;;
11614;SDS011;5863;52.832;4.758;2022-12-29T02:02:00;8.05;;;1.60;;
11614;SDS011;5863;52.832;4.758;2022-12-29T02:04:28;6.97;;;1.67;;
11614;SDS011;5863;52.832;4.758;2022-12-29T02:06:59;8.00;;;1.55;;
11614;SDS011;5863;52.832;4.758;2022-12-29T02:09:28;10.95;;;2.05;;
11614;SDS011;5863;52.832;4.758;2022-12-29T02:12:00;7.55;;;1.75;;
11614;SDS011;5863;52.832;4.758;2022-12-29T02:14:27;9.98;;;2.53;;
11614;SDS011;5863;52.832;4.758;2022-12-29T02:16:59;11.27;;;2.20;;
11614;SDS011;5863;52.832;4.758;2022-12-29T02:19:47;9.52;;;2.55;;
11614;SDS011;5863;52.832;4.758;2022-12-29T02:22:35;9.75;;;3.30;;
11614;SDS011;5863;52.832;4.758;2022-12-29T02:25:26;17.42;;;2.97;;
11614;SDS011;5863;52.832;4.758;2022-12-29T02:28:17;17.88;;;3.47;;
11614;SDS011;5863;52.832;4.758;2022-12-29T02:31:15;14.77;;;3.22;;
11614;SDS011;5863;52.832;4.758;2022-12-29T02:33:50;20.67;;;4.05;;
11614;SDS011;5863;52.832;4.758;2022-12-29T02:36:28;18.45;;;3.97;;
11614;SDS011;5863;52.832;4.758;2022-12-29T02:39:03;23.00;;;4.43;;
11614;SDS011;5863;52.832;4.758;2022-12-29T02:41:37;22.40;;;4.70;;
11614;SDS011;5863;52.832;4.758;2022-12-29T02:44:14;23.20;;;4.15;;
11614;SDS011;5863;52.832;4.758;2022-12-29T02:46:51;23.85;;;5.50;;
11614;SDS011;5863;52.832;4.758;2022-12-29T02:49:22;25.02;;;4.50;;
11614;SDS011;5863;52.832;4.758;2022-12-29T02:51:58;20.48;;;3.78;;
11614;SDS011;5863;52.832;4.758;2022-12-29T02:54:29;19.50;;;3.70;;
11614;SDS011;5863;52.832;4.758;2022-12-29T02:57:11;15.10;;;3.60;;
11614;SDS011;5863;52.832;4.758;2022-12-29T02:59:40;23.02;;;3.30;;
11614;SDS011;5863;52.832;4.758;2022-12-29T03:02:17;15.48;;;3.63;;
11614;SDS011;5863;52.832;4.758;2022-12-29T03:05:04;24.75;;;3.95;;
11614;SDS011;5863;52.832;4.758;2022-12-29T03:07:43;20.75;;;4.07;;
11614;SDS011;5863;52.832;4.758;2022-12-29T03:10:19;16.05;;;3.72;;
11614;SDS011;5863;52.832;4.758;2022-12-29T03:13:00;17.35;;;3.80;;
11614;SDS011;5863;52.832;4.758;2022-12-29T03:15:50;19.30;;;4.07;;
11614;SDS011;5863;52.832;4.758;2022-12-29T03:18:32;22.75;;;4.18;;
11614;SDS011;5863;52.832;4.758;2022-12-29T03:21:08;19.55;;;4.60;;
11614;SDS011;5863;52.832;4.758;2022-12-29T03:23:38;23.67;;;4.88;;
11614;SDS011;5863;52.832;4.758;2022-12-29T03:26:09;25.33;;;4.00;;
11614;SDS011;5863;52.832;4.758;2022-12-29T03:28:38;20.90;;;4.25;;
11614;SDS011;5863;52.832;4.758;2022-12-29T03:31:08;20.17;;;4.38;;
11614;SDS011;5863;52.832;4.758;2022-12-29T03:33:38;23.95;;;4.75;;
11614;SDS011;5863;52.832;4.758;2022-12-29T03:36:08;23.52;;;4.18;;
11614;SDS011;5863;52.832;4.758;2022-12-29T03:38:39;22.38;;;5.43;;
11614;SDS011;5863;52.832;4.758;2022-12-29T03:41:12;21.13;;;4.93;;
11614;SDS011;5863;52.832;4.758;2022-12-29T03:43:43;23.27;;;5.15;;
11614;SDS011;5863;52.832;4.758;2022-12-29T03:46:09;24.57;;;4.27;;
11614;SDS011;5863;52.832;4.758;2022-12-29T03:48:36;26.55;;;4.93;;
11614;SDS011;5863;52.832;4.758;2022-12-29T03:51:04;34.07;;;5.30;;
11614;SDS011;5863;52.832;4.758;2022-12-29T03:53:31;28.95;;;5.15;;
11614;SDS011;5863;52.832;4.758;2022-12-29T03:55:58;31.30;;;5.63;;
11614;SDS011;5863;52.832;4.758;2022-12-29T03:58:24;33.75;;;5.45;;
11614;SDS011;5863;52.832;4.758;2022-12-29T04:00:51;34.28;;;5.68;;
11614;SDS011;5863;52.832;4.758;2022-12-29T04:03:18;26.38;;;4.90;;
11614;SDS011;5863;52.832;4.758;2022-12-29T04:05:44;26.75;;;5.40;;
11614;SDS011;5863;52.832;4.758;2022-12-29T04:08:13;29.63;;;5.43;;
11614;SDS011;5863;52.832;4.758;2022-12-29T04:10:39;30.95;;;5.65;;
11614;SDS011;5863;52.832;4.758;2022-12-29T04:13:06;31.52;;;5.38;;
11614;SDS011;5863;52.832;4.758;2022-12-29T04:15:33;39.75;;;6.70;;
11614;SDS011;5863;52.832;4.758;2022-12-29T04:18:00;32.05;;;5.63;;
11614;SDS011;5863;52.832;4.758;2022-12-29T04:20:27;26.00;;;5.47;;
11614;SDS011;5863;52.832;4.758;2022-12-29T04:23:12;27.45;;;4.82;;
11614;SDS011;5863;52.832;4.758;2022-12-29T04:25:39;28.55;;;5.68;;
11614;SDS011;5863;52.832;4.758;2022-12-29T04:28:06;31.63;;;5.68;;
11614;SDS011;5863;52.832;4.758;2022-12-29T04:30:33;27.35;;;5.43;;
11614;SDS011;5863;52.832;4.758;2022-12-29T04:32:59;31.17;;;5.53;;
11614;SDS011;5863;52.832;4.758;2022-12-29T04:35:26;25.90;;;5.50;;
11614;SDS011;5863;52.832;4.758;2022-12-29T04:37:53;30.63;;;5.53;;
11614;SDS011;5863;52.832;4.758;2022-12-29T04:40:21;29.75;;;5.40;;
11614;SDS011;5863;52.832;4.758;2022-12-29T04:42:48;29.58;;;4.93;;
11614;SDS011;5863;52.832;4.758;2022-12-29T04:45:15;21.80;;;4.93;;
11614;SDS011;5863;52.832;4.758;2022-12-29T04:47:42;28.65;;;4.93;;
11614;SDS011;5863;52.832;4.758;2022-12-29T04:50:08;19.27;;;4.47;;
11614;SDS011;5863;52.832;4.758;2022-12-29T04:52:35;26.70;;;4.22;;
11614;SDS011;5863;52.832;4.758;2022-12-29T04:55:03;19.35;;;4.45;;
11614;SDS011;5863;52.832;4.758;2022-12-29T04:57:32;21.92;;;4.47;;
11614;SDS011;5863;52.832;4.758;2022-12-29T04:59:58;17.77;;;4.10;;
11614;SDS011;5863;52.832;4.758;2022-12-29T05:02:25;21.00;;;4.72;;
11614;SDS011;5863;52.832;4.758;2022-12-29T05:04:52;27.52;;;5.10;;
11614;SDS011;5863;52.832;4.758;2022-12-29T05:07:18;25.85;;;4.93;;
11614;SDS011;5863;52.832;4.758;2022-12-29T05:09:45;21.95;;;4.63;;
11614;SDS011;5863;52.832;4.758;2022-12-29T05:12:12;27.17;;;5.38;;
11614;SDS011;5863;52.832;4.758;2022-12-29T05:14:40;28.98;;;4.97;;
11614;SDS011;5863;52.832;4.758;2022-12-29T05:17:07;25.20;;;5.43;;
11614;SDS011;5863;52.832;4.758;2022-12-29T05:19:33;36.83;;;5.50;;
11614;SDS011;5863;52.832;4.758;2022-12-29T05:22:00;33.88;;;5.72;;
11614;SDS011;5863;52.832;4.758;2022-12-29T05:24:27;30.33;;;5.18;;
11614;SDS011;5863;52.832;4.758;2022-12-29T05:26:53;28.75;;;5.63;;
11614;SDS011;5863;52.832;4.758;2022-12-29T05:29:20;31.42;;;5.00;;
11614;SDS011;5863;52.832;4.758;2022-12-29T05:31:48;30.67;;;6.57;;
11614;SDS011;5863;52.832;4.758;2022-12-29T05:34:15;29.38;;;5.45;;
11614;SDS011;5863;52.832;4.758;2022-12-29T05:36:42;31.05;;;6.60;;
11614;SDS011;5863;52.832;4.758;2022-12-29T05:39:08;33.30;;;6.50;;
11614;SDS011;5863;52.832;4.758;2022-12-29T05:41:35;31.73;;;6.78;;
11614;SDS011;5863;52.832;4.758;2022-12-29T05:44:02;34.97;;;6.18;;
11614;SDS011;5863;52.832;4.758;2022-12-29T05:46:29;30.60;;;5.78;;
11614;SDS011;5863;52.832;4.758;2022-12-29T05:48:57;32.22;;;5.88;;
11614;SDS011;5863;52.832;4.758;2022-12-29T05:51:23;34.75;;;6.57;;
11614;SDS011;5863;52.832;4.758;2022-12-29T05:53:50;26.63;;;5.55;;
11614;SDS011;5863;52.832;4.758;2022-12-29T05:56:17;29.27;;;5.90;;
11614;SDS011;5863;52.832;4.758;2022-12-29T05:58:43;31.92;;;5.93;;
11614;SDS011;5863;52.832;4.758;2022-12-29T06:01:10;34.88;;;6.10;;
11614;SDS011;5863;52.832;4.758;2022-12-29T06:03:37;28.20;;;5.50;;
11614;SDS011;5863;52.832;4.758;2022-12-29T06:06:05;39.50;;;7.20;;
11614;SDS011;5863;52.832;4.758;2022-12-29T06:08:32;37.97;;;6.15;;
11614;SDS011;5863;52.832;4.758;2022-12-29T06:10:59;36.95;;;6.55;;
11614;SDS011;5863;52.832;4.758;2022-12-29T06:13:26;40.60;;;6.40;;
11614;SDS011;5863;52.832;4.758;2022-12-29T06:15:53;29.83;;;5.30;;
11614;SDS011;5863;52.832;4.758;2022-12-29T06:18:20;28.23;;;5.53;;
11614;SDS011;5863;52.832;4.758;2022-12-29T06:20:47;29.50;;;5.35;;
11614;SDS011;5863;52.832;4.758;2022-12-29T06:23:15;34.17;;;6.47;;
11614;SDS011;5863;52.832;4.758;2022-12-29T06:25:43;33.75;;;6.63;;
11614;SDS011;5863;52.832;4.758;2022-12-29T06:28:10;36.87;;;6.27;;
11614;SDS011;5863;52.832;4.758;2022-12-29T06:30:36;36.40;;;6.10;;
11614;SDS011;5863;52.832;4.758;2022-12-29T06:33:03;38.78;;;6.40;;
11614;SDS011;5863;52.832;4.758;2022-12-29T06:35:30;34.57;;;6.50;;
11614;SDS011;5863;52.832;4.758;2022-12-29T06:37:56;31.80;;;5.80;;
11614;SDS011;5863;52.832;4.758;2022-12-29T06:40:25;35.15;;;6.88;;
11614;SDS011;5863;52.832;4.758;2022-12-29T06:42:51;34.35;;;5.47;;
11614;SDS011;5863;52.832;4.758;2022-12-29T06:45:18;32.70;;;5.95;;
11614;SDS011;5863;52.832;4.758;2022-12-29T06:47:45;26.63;;;5.32;;
11614;SDS011;5863;52.832;4.758;2022-12-29T06:50:11;36.50;;;7.47;;
11614;SDS011;5863;52.832;4.758;2022-12-29T06:52:38;30.40;;;5.67;;
11614;SDS011;5863;52.832;4.758;2022-12-29T06:55:05;24.50;;;5.38;;
11614;SDS011;5863;52.832;4.758;2022-12-29T06:57:34;36.80;;;6.90;;
11614;SDS011;5863;52.832;4.758;2022-12-29T07:00:01;33.20;;;5.70;;
11614;SDS011;5863;52.832;4.758;2022-12-29T07:02:28;27.17;;;5.78;;
11614;SDS011;5863;52.832;4.758;2022-12-29T07:04:55;30.38;;;5.40;;
11614;SDS011;5863;52.832;4.758;2022-12-29T07:07:22;36.43;;;6.27;;
11614;SDS011;5863;52.832;4.758;2022-12-29T07:09:48;31.20;;;5.73;;
11614;SDS011;5863;52.832;4.758;2022-12-29T07:12:16;32.63;;;6.10;;
11614;SDS011;5863;52.832;4.758;2022-12-29T07:14:44;36.72;;;6.80;;
11614;SDS011;5863;52.832;4.758;2022-12-29T07:17:10;31.02;;;5.38;;
11614;SDS011;5863;52.832;4.758;2022-12-29T07:19:37;31.48;;;5.70;;
11614;SDS011;5863;52.832;4.758;2022-12-29T07:22:04;33.13;;;6.20;;
11614;SDS011;5863;52.832;4.758;2022-12-29T07:24:31;33.75;;;6.55;;
11614;SDS011;5863;52.832;4.758;2022-12-29T07:26:57;35.13;;;5.60;;
11614;SDS011;5863;52.832;4.758;2022-12-29T07:29:24;30.17;;;5.30;;
11614;SDS011;5863;52.832;4.758;2022-12-29T07:31:52;30.17;;;5.57;;
11614;SDS011;5863;52.832;4.758;2022-12-29T07:34:19;34.58;;;6.32;;
11614;SDS011;5863;52.832;4.758;2022-12-29T07:36:48;30.25;;;5.57;;
11614;SDS011;5863;52.832;4.758;2022-12-29T07:39:21;29.30;;;5.68;;
11614;SDS011;5863;52.832;4.758;2022-12-29T07:41:48;31.23;;;6.15;;
11614;SDS011;5863;52.832;4.758;2022-12-29T07:44:15;36.38;;;6.38;;
11614;SDS011;5863;52.832;4.758;2022-12-29T07:46:42;32.07;;;5.93;;
11614;SDS011;5863;52.832;4.758;2022-12-29T07:49:11;37.70;;;7.18;;
11614;SDS011;5863;52.832;4.758;2022-12-29T07:51:38;27.30;;;6.35;;
11614;SDS011;5863;52.832;4.758;2022-12-29T07:54:05;28.05;;;5.90;;
11614;SDS011;5863;52.832;4.758;2022-12-29T07:56:31;35.13;;;6.13;;
11614;SDS011;5863;52.832;4.758;2022-12-29T07:58:58;29.77;;;5.82;;
11614;SDS011;5863;52.832;4.758;2022-12-29T08:01:25;34.92;;;5.93;;
11614;SDS011;5863;52.832;4.758;2022-12-29T08:03:51;44.42;;;6.40;;
11614;SDS011;5863;52.832;4.758;2022-12-29T08:06:19;34.83;;;6.87;;
11614;SDS011;5863;52.832;4.758;2022-12-29T08:08:47;41.17;;;7.35;;
11614;SDS011;5863;52.832;4.758;2022-12-29T08:11:14;39.70;;;6.47;;
11614;SDS011;5863;52.832;4.758;2022-12-29T08:13:40;36.47;;;6.75;;
11614;SDS011;5863;52.832;4.758;2022-12-29T08:16:07;31.00;;;6.15;;
11614;SDS011;5863;52.832;4.758;2022-12-29T08:18:39;35.13;;;6.45;;
11614;SDS011;5863;52.832;4.758;2022-12-29T08:21:06;36.97;;;6.77;;
11614;SDS011;5863;52.832;4.758;2022-12-29T08:23:34;33.88;;;6.57;;
11614;SDS011;5863;52.832;4.758;2022-12-29T08:26:02;45.70;;;6.85;;
11614;SDS011;5863;52.832;4.758;2022-12-29T08:28:30;39.22;;;7.22;;
11614;SDS011;5863;52.832;4.758;2022-12-29T08:30:57;41.33;;;7.57;;
11614;SDS011;5863;52.832;4.758;2022-12-29T08:33:24;34.03;;;6.80;;
11614;SDS011;5863;52.832;4.758;2022-12-29T08:35:51;37.97;;;7.57;;
11614;SDS011;5863;52.832;4.758;2022-12-29T08:38:19;37.83;;;7.30;;
11614;SDS011;5863;52.832;4.758;2022-12-29T08:40:47;40.03;;;7.57;;
11614;SDS011;5863;52.832;4.758;2022-12-29T08:43:14;41.83;;;7.53;;
11614;SDS011;5863;52.832;4.758;2022-12-29T08:45:40;36.13;;;7.20;;
11614;SDS011;5863;52.832;4.758;2022-12-29T08:48:07;39.83;;;7.38;;
11614;SDS011;5863;52.832;4.758;2022-12-29T08:50:33;45.45;;;7.88;;
11614;SDS011;5863;52.832;4.758;2022-12-29T08:53:00;37.83;;;7.40;;
11614;SDS011;5863;52.832;4.758;2022-12-29T08:55:27;43.55;;;7.32;;
11614;SDS011;5863;52.832;4.758;2022-12-29T08:57:55;48.20;;;8.32;;
11614;SDS011;5863;52.832;4.758;2022-12-29T09:00:22;46.10;;;8.25;;
11614;SDS011;5863;52.832;4.758;2022-12-29T09:02:50;45.30;;;8.15;;
11614;SDS011;5863;52.832;4.758;2022-12-29T09:05:16;49.65;;;8.50;;
11614;SDS011;5863;52.832;4.758;2022-12-29T09:07:43;45.63;;;8.73;;
11614;SDS011;5863;52.832;4.758;2022-12-29T09:10:10;45.08;;;7.57;;
11614;SDS011;5863;52.832;4.758;2022-12-29T09:12:36;36.63;;;7.18;;
11614;SDS011;5863;52.832;4.758;2022-12-29T09:15:05;36.90;;;6.35;;
11614;SDS011;5863;52.832;4.758;2022-12-29T09:17:34;35.67;;;7.22;;
11614;SDS011;5863;52.832;4.758;2022-12-29T09:20:07;29.08;;;6.15;;
11614;SDS011;5863;52.832;4.758;2022-12-29T09:22:34;39.60;;;6.95;;
11614;SDS011;5863;52.832;4.758;2022-12-29T09:25:01;34.97;;;6.28;;
11614;SDS011;5863;52.832;4.758;2022-12-29T09:27:28;38.30;;;6.53;;
11614;SDS011;5863;52.832;4.758;2022-12-29T09:29:55;32.92;;;6.35;;
11614;SDS011;5863;52.832;4.758;2022-12-29T09:32:23;33.28;;;5.78;;
11614;SDS011;5863;52.832;4.758;2022-12-29T09:34:50;35.60;;;6.03;;
11614;SDS011;5863;52.832;4.758;2022-12-29T09:37:17;23.63;;;5.03;;
11614;SDS011;5863;52.832;4.758;2022-12-29T09:39:43;27.27;;;5.07;;
11614;SDS011;5863;52.832;4.758;2022-12-29T09:42:12;29.67;;;5.28;;
11614;SDS011;5863;52.832;4.758;2022-12-29T09:44:48;20.95;;;4.25;;
11614;SDS011;5863;52.832;4.758;2022-12-29T09:47:23;28.17;;;4.07;;
11614;SDS011;5863;52.832;4.758;2022-12-29T09:49:52;20.52;;;4.30;;
11614;SDS011;5863;52.832;4.758;2022-12-29T09:52:23;24.98;;;4.97;;
11614;SDS011;5863;52.832;4.758;2022-12-29T09:54:55;24.58;;;5.80;;
11614;SDS011;5863;52.832;4.758;2022-12-29T09:57:24;13.70;;;3.60;;
11614;SDS011;5863;52.832;4.758;2022-12-29T09:59:54;20.13;;;4.35;;
11614;SDS011;5863;52.832;4.758;2022-12-29T10:02:31;20.75;;;3.67;;
11614;SDS011;5863;52.832;4.758;2022-12-29T10:05:03;22.48;;;4.80;;
11614;SDS011;5863;52.832;4.758;2022-12-29T10:07:33;26.90;;;6.05;;
11614;SDS011;5863;52.832;4.758;2022-12-29T10:10:12;28.27;;;4.95;;
11614;SDS011;5863;52.832;4.758;2022-12-29T10:12:56;19.45;;;4.50;;
11614;SDS011;5863;52.832;4.758;2022-12-29T10:15:33;22.48;;;3.97;;
11614;SDS011;5863;52.832;4.758;2022-12-29T10:18:12;22.17;;;3.90;;
11614;SDS011;5863;52.832;4.758;2022-12-29T10:20:52;19.00;;;3.25;;
11614;SDS011;5863;52.832;4.758;2022-12-29T10:23:31;20.92;;;4.32;;
11614;SDS011;5863;52.832;4.758;2022-12-29T10:26:01;21.38;;;4.13;;
11614;SDS011;5863;52.832;4.758;2022-12-29T10:28:33;17.40;;;3.70;;
11614;SDS011;5863;52.832;4.758;2022-12-29T10:31:03;16.48;;;3.60;;
11614;SDS011;5863;52.832;4.758;2022-12-29T10:33:36;19.40;;;4.50;;
11614;SDS011;5863;52.832;4.758;2022-12-29T10:36:10;16.45;;;3.60;;
11614;SDS011;5863;52.832;4.758;2022-12-29T10:38:42;20.55;;;4.10;;
11614;SDS011;5863;52.832;4.758;2022-12-29T10:41:15;20.63;;;4.32;;
11614;SDS011;5863;52.832;4.758;2022-12-29T10:43:46;22.75;;;4.00;;
11614;SDS011;5863;52.832;4.758;2022-12-29T10:46:16;21.25;;;4.40;;
11614;SDS011;5863;52.832;4.758;2022-12-29T10:48:47;26.38;;;4.88;;
11614;SDS011;5863;52.832;4.758;2022-12-29T10:51:15;12.52;;;3.00;;
11614;SDS011;5863;52.832;4.758;2022-12-29T10:53:50;18.95;;;3.60;;
11614;SDS011;5863;52.832;4.758;2022-12-29T10:56:21;22.25;;;4.03;;
11614;SDS011;5863;52.832;4.758;2022-12-29T10:58:58;12.77;;;2.78;;
11614;SDS011;5863;52.832;4.758;2022-12-29T11:01:31;16.05;;;3.40;;
11614;SDS011;5863;52.832;4.758;2022-12-29T11:04:08;15.73;;;3.45;;
11614;SDS011;5863;52.832;4.758;2022-12-29T11:06:48;12.43;;;2.75;;
11614;SDS011;5863;52.832;4.758;2022-12-29T11:09:16;20.05;;;3.75;;
11614;SDS011;5863;52.832;4.758;2022-12-29T11:11:50;17.38;;;2.95;;
11614;SDS011;5863;52.832;4.758;2022-12-29T11:14:18;14.30;;;3.22;;
11614;SDS011;5863;52.832;4.758;2022-12-29T11:16:51;18.05;;;2.90;;
11614;SDS011;5863;52.832;4.758;2022-12-29T11:19:25;12.68;;;2.83;;
11614;SDS011;5863;52.832;4.758;2022-12-29T11:21:53;14.75;;;2.83;;
11614;SDS011;5863;52.832;4.758;2022-12-29T11:24:21;14.65;;;3.38;;
11614;SDS011;5863;52.832;4.758;2022-12-29T11:26:50;16.30;;;2.95;;
11614;SDS011;5863;52.832;4.758;2022-12-29T11:29:25;9.57;;;2.45;;
11614;SDS011;5863;52.832;4.758;2022-12-29T11:31:54;14.90;;;3.05;;
11614;SDS011;5863;52.832;4.758;2022-12-29T11:34:25;11.65;;;2.80;;
11614;SDS011;5863;52.832;4.758;2022-12-29T11:36:58;14.73;;;2.67;;
11614;SDS011;5863;52.832;4.758;2022-12-29T11:39:32;13.07;;;3.30;;
11614;SDS011;5863;52.832;4.758;2022-12-29T11:42:03;12.90;;;3.08;;
11614;SDS011;5863;52.832;4.758;2022-12-29T11:44:35;10.88;;;2.25;;
11614;SDS011;5863;52.832;4.758;2022-12-29T11:47:04;19.40;;;3.22;;
11614;SDS011;5863;52.832;4.758;2022-12-29T11:49:36;15.48;;;2.97;;
11614;SDS011;5863;52.832;4.758;2022-12-29T11:52:03;16.23;;;3.10;;
11614;SDS011;5863;52.832;4.758;2022-12-29T11:54:32;14.52;;;3.40;;
11614;SDS011;5863;52.832;4.758;2022-12-29T11:57:08;14.35;;;3.30;;
11614;SDS011;5863;52.832;4.758;2022-12-29T11:59:40;14.27;;;2.83;;
11614;SDS011;5863;52.832;4.758;2022-12-29T12:02:22;15.68;;;3.40;;
11614;SDS011;5863;52.832;4.758;2022-12-29T12:05:01;16.13;;;2.85;;
11614;SDS011;5863;52.832;4.758;2022-12-29T12:07:37;16.02;;;3.75;;
11614;SDS011;5863;52.832;4.758;2022-12-29T12:10:10;16.75;;;4.22;;
11614;SDS011;5863;52.832;4.758;2022-12-29T12:12:52;16.40;;;3.35;;
11614;SDS011;5863;52.832;4.758;2022-12-29T12:15:28;14.75;;;3.55;;
11614;SDS011;5863;52.832;4.758;2022-12-29T12:18:03;18.00;;;3.25;;
11614;SDS011;5863;52.832;4.758;2022-12-29T12:20:38;17.45;;;3.42;;
11614;SDS011;5863;52.832;4.758;2022-12-29T12:26:09;18.50;;;2.97;;
11614;SDS011;5863;52.832;4.758;2022-12-29T12:28:40;12.65;;;2.72;;
11614;SDS011;5863;52.832;4.758;2022-12-29T12:31:28;18.00;;;2.92;;
11614;SDS011;5863;52.832;4.758;2022-12-29T12:34:11;22.35;;;3.15;;
11614;SDS011;5863;52.832;4.758;2022-12-29T12:36:49;14.38;;;3.70;;
11614;SDS011;5863;52.832;4.758;2022-12-29T12:39:32;21.98;;;4.20;;
11614;SDS011;5863;52.832;4.758;2022-12-29T12:42:11;15.18;;;3.75;;
11614;SDS011;5863;52.832;4.758;2022-12-29T12:44:51;21.25;;;3.53;;
11614;SDS011;5863;52.832;4.758;2022-12-29T12:47:33;11.90;;;2.70;;
11614;SDS011;5863;52.832;4.758;2022-12-29T12:50:14;19.30;;;3.42;;
11614;SDS011;5863;52.832;4.758;2022-12-29T12:53:05;17.25;;;3.25;;
11614;SDS011;5863;52.832;4.758;2022-12-29T12:55:52;9.05;;;2.83;;
11614;SDS011;5863;52.832;4.758;2022-12-29T12:58:38;19.80;;;3.80;;
11614;SDS011;5863;52.832;4.758;2022-12-29T13:01:15;14.23;;;2.58;;
11614;SDS011;5863;52.832;4.758;2022-12-29T13:03:56;15.98;;;3.10;;
11614;SDS011;5863;52.832;4.758;2022-12-29T13:06:33;12.48;;;2.60;;
11614;SDS011;5863;52.832;4.758;2022-12-29T13:09:21;12.48;;;3.70;;
11614;SDS011;5863;52.832;4.758;2022-12-29T13:12:00;17.85;;;3.65;;
11614;SDS011;5863;52.832;4.758;2022-12-29T13:14:37;15.05;;;3.33;;
11614;SDS011;5863;52.832;4.758;2022-12-29T13:17:12;15.98;;;2.55;;
11614;SDS011;5863;52.832;4.758;2022-12-29T13:19:46;19.73;;;3.72;;
11614;SDS011;5863;52.832;4.758;2022-12-29T13:22:18;13.65;;;2.72;;
11614;SDS011;5863;52.832;4.758;2022-12-29T13:24:52;17.40;;;3.25;;
11614;SDS011;5863;52.832;4.758;2022-12-29T13:27:27;12.27;;;3.00;;
11614;SDS011;5863;52.832;4.758;2022-12-29T13:30:01;10.95;;;3.00;;
11614;SDS011;5863;52.832;4.758;2022-12-29T13:32:34;18.02;;;3.63;;
11614;SDS011;5863;52.832;4.758;2022-12-29T13:35:22;13.57;;;2.65;;
11614;SDS011;5863;52.832;4.758;2022-12-29T13:37:58;16.88;;;2.92;;
11614;SDS011;5863;52.832;4.758;2022-12-29T13:40:32;13.48;;;2.88;;
11614;SDS011;5863;52.832;4.758;2022-12-29T13:43:04;24.13;;;3.65;;
11614;SDS011;5863;52.832;4.758;2022-12-29T13:45:32;16.30;;;3.28;;
11614;SDS011;5863;52.832;4.758;2022-12-29T13:48:02;22.67;;;3.85;;
11614;SDS011;5863;52.832;4.758;2022-12-29T13:50:38;17.65;;;3.58;;
11614;SDS011;5863;52.832;4.758;2022-12-29T13:53:08;15.48;;;3.55;;
11614;SDS011;5863;52.832;4.758;2022-12-29T13:55:45;18.13;;;4.47;;
11614;SDS011;5863;52.832;4.758;2022-12-29T13:58:18;15.88;;;3.55;;
11614;SDS011;5863;52.832;4.758;2022-12-29T14:00:51;14.45;;;3.55;;
11614;SDS011;5863;52.832;4.758;2022-12-29T14:03:32;19.45;;;3.63;;
11614;SDS011;5863;52.832;4.758;2022-12-29T14:06:18;18.08;;;3.40;;
11614;SDS011;5863;52.832;4.758;2022-12-29T14:08:48;21.13;;;3.83;;
11614;SDS011;5863;52.832;4.758;2022-12-29T14:11:20;17.98;;;3.22;;
11614;SDS011;5863;52.832;4.758;2022-12-29T14:13:50;15.38;;;3.20;;
11614;SDS011;5863;52.832;4.758;2022-12-29T14:16:25;15.98;;;3.33;;
11614;SDS011;5863;52.832;4.758;2022-12-29T14:18:57;15.02;;;3.10;;
11614;SDS011;5863;52.832;4.758;2022-12-29T14:21:31;17.67;;;3.33;;
11614;SDS011;5863;52.832;4.758;2022-12-29T14:33:15;21.13;;;3.47;;
11614;SDS011;5863;52.832;4.758;2022-12-29T14:35:44;12.60;;;2.05;;
11614;SDS011;5863;52.832;4.758;2022-12-29T14:38:15;14.52;;;2.58;;
11614;SDS011;5863;52.832;4.758;2022-12-29T14:40:44;16.45;;;2.88;;
11614;SDS011;5863;52.832;4.758;2022-12-29T14:43:12;19.98;;;3.03;;
11614;SDS011;5863;52.832;4.758;2022-12-29T14:45:44;20.45;;;3.17;;
11614;SDS011;5863;52.832;4.758;2022-12-29T14:48:30;23.00;;;3.42;;
11614;SDS011;5863;52.832;4.758;2022-12-29T14:51:01;16.88;;;3.33;;
11614;SDS011;5863;52.832;4.758;2022-12-29T14:53:43;15.73;;;3.35;;
11614;SDS011;5863;52.832;4.758;2022-12-29T14:56:12;16.45;;;3.38;;
11614;SDS011;5863;52.832;4.758;2022-12-29T14:58:43;13.18;;;2.78;;
11614;SDS011;5863;52.832;4.758;2022-12-29T15:01:18;18.35;;;3.53;;
11614;SDS011;5863;52.832;4.758;2022-12-29T15:04:00;15.07;;;2.95;;
11614;SDS011;5863;52.832;4.758;2022-12-29T15:06:39;16.35;;;2.97;;
11614;SDS011;5863;52.832;4.758;2022-12-29T15:09:10;20.35;;;3.75;;
11614;SDS011;5863;52.832;4.758;2022-12-29T15:11:47;18.13;;;3.50;;
11614;SDS011;5863;52.832;4.758;2022-12-29T15:14:31;14.23;;;3.30;;
11614;SDS011;5863;52.832;4.758;2022-12-29T15:17:08;20.20;;;3.47;;
11614;SDS011;5863;52.832;4.758;2022-12-29T15:19:37;20.80;;;3.08;;
11614;SDS011;5863;52.832;4.758;2022-12-29T15:22:04;18.05;;;3.03;;
11614;SDS011;5863;52.832;4.758;2022-12-29T15:24:32;15.90;;;3.40;;
11614;SDS011;5863;52.832;4.758;2022-12-29T15:27:02;18.80;;;3.80;;